Port Chester, New York
Current Conditions -  °F | °C
As of 1:56 PM on Thursday 30 Oct 2014 (Local Time) from KHPN Reporting Station
Scattered Clouds Scattered Clouds  
Wind Chill: 54°   Ceiling: Unl
Heat Index: 54°   Visibility: 10mi
Dew Point: 36°   Wind: 7mph
Humidity: 51%   Direction: 290°WNW
Pressure: 29.96"   Gusts: 16mph
Location:  41°N, 73.67°W
Report Text: KHPN 301756Z 29006G14KT 10SM SCT035 12/02 A2996 RMK AO2 SLP147 T01220022 10133 20067 58009
Loading
Personal Weather Stations






























Interactive Weather Map
Tropical Storm Tracking
New forecast layout! Learn more

10-Day Weather Forecast

Advertisements
Track Severe Weather on mobile